« Back
NWS Peachtree City, Ga » Text Product » ATL Terminal Aerodrome Forecast


Printer-friendly Version
Current Version              Previous Versions:   1  2  3  4  5  6  7  8  9  

Terminal Aerodrome Forecast

232
FTUS42 KFFC 301857 AAA
TAFATL
TAF AMD
KATL 301857Z 3019/3124 31010G16KT P6SM SCT040
     FM302200 31008KT P6SM SKC
     FM310200 32005KT P6SM SKC
     FM311400 23005KT P6SM SCT035
     FM311800 26010KT P6SM BKN040=

USA.gov is the U.S. government's official web portal to all federal, state and local government web resources and services.